Time;durP1;ratioP1;P1;durP2;ratioP2;P2;SDS_P1;SDS_P2;PMS_P1;PMS_P2;Temp;Humidity;BMP_temperature;BMP_pressure;BME280_temperature;BME280_humidity;BME280_pressure;Samples;Min_cycle;Max_cycle;Signal;HPM_P1;HPM_P2
2023/07/19 00:00:43;;;;;;;8.40;3.08;;;;;;;;;;5072371;28;20054;-73
2023/07/19 00:03:09;;;;;;;9.07;3.67;;;;;;;;;;5074470;28;20020;-74
2023/07/19 00:05:35;;;;;;;7.15;3.75;;;;;;;;;;5074102;28;20328;-74
2023/07/19 00:08:04;;;;;;;6.47;3.40;;;;;;;;;;5073823;28;20027;-73
2023/07/19 00:10:30;;;;;;;6.13;3.40;;;;;;;;;;5073894;28;20017;-73
2023/07/19 00:12:56;;;;;;;7.55;3.67;;;;;;;;;;5073397;28;20044;-73
2023/07/19 00:15:22;;;;;;;8.48;3.92;;;;;;;;;;5073007;28;20024;-73
2023/07/19 00:17:48;;;;;;;8.48;3.92;;;;;;;;;;5073409;28;20048;-73
2023/07/19 00:20:15;;;;;;;9.10;3.70;;;;;;;;;;5073533;28;20020;-74
2023/07/19 00:22:41;;;;;;;5.22;3.20;;;;;;;;;;5073019;28;20134;-73
2023/07/19 00:25:07;;;;;;;13.88;3.80;;;;;;;;;;5073547;28;20052;-72
2023/07/19 00:27:33;;;;;;;7.38;3.78;;;;;;;;;;5073157;28;20394;-72
2023/07/19 00:29:59;;;;;;;10.25;3.65;;;;;;;;;;5073638;28;20024;-74
2023/07/19 00:32:25;;;;;;;7.60;2.97;;;;;;;;;;5077027;28;20025;-74
2023/07/19 00:34:51;;;;;;;7.28;3.35;;;;;;;;;;5078339;28;20028;-73
2023/07/19 00:37:17;;;;;;;7.88;3.20;;;;;;;;;;5078231;28;20025;-73
2023/07/19 00:39:43;;;;;;;5.32;2.95;;;;;;;;;;5086472;28;20020;-73
2023/07/19 00:42:09;;;;;;;10.18;3.08;;;;;;;;;;5071454;28;20024;-74
2023/07/19 00:44:35;;;;;;;7.95;3.22;;;;;;;;;;5072813;28;20035;-74
2023/07/19 00:47:02;;;;;;;6.00;3.30;;;;;;;;;;5073645;28;20020;-73
2023/07/19 00:49:30;;;;;;;9.07;3.65;;;;;;;;;;5073554;28;20040;-73
2023/07/19 00:51:56;;;;;;;7.05;3.58;;;;;;;;;;5073141;28;20025;-73
2023/07/19 00:54:23;;;;;;;8.70;3.50;;;;;;;;;;5073309;28;20074;-74
2023/07/19 00:56:49;;;;;;;8.98;3.50;;;;;;;;;;5073358;28;20042;-73
2023/07/19 00:59:15;;;;;;;7.65;3.15;;;;;;;;;;5073459;28;20033;-74
2023/07/19 01:01:44;;;;;;;9.38;3.65;;;;;;;;;;5073953;28;20020;-74
2023/07/19 01:04:10;;;;;;;5.97;3.17;;;;;;;;;;5074056;28;20025;-74
2023/07/19 01:06:36;;;;;;;7.45;3.42;;;;;;;;;;5073312;28;20020;-73
2023/07/19 01:09:03;;;;;;;6.90;3.70;;;;;;;;;;5072715;28;20081;-73
2023/07/19 01:11:29;;;;;;;6.75;3.45;;;;;;;;;;5072586;28;20028;-74
2023/07/19 01:13:55;;;;;;;5.53;3.17;;;;;;;;;;5072633;28;20504;-73
2023/07/19 01:16:21;;;;;;;6.38;3.47;;;;;;;;;;5072168;28;20059;-73
2023/07/19 01:18:48;;;;;;;6.18;3.40;;;;;;;;;;5072494;28;20115;-73
2023/07/19 01:21:14;;;;;;;6.63;3.20;;;;;;;;;;5072653;28;20039;-73
2023/07/19 01:23:40;;;;;;;4.88;3.17;;;;;;;;;;5072380;28;20108;-74
2023/07/19 01:26:06;;;;;;;9.85;3.60;;;;;;;;;;5072686;28;20025;-74
2023/07/19 01:28:32;;;;;;;7.38;3.40;;;;;;;;;;5072687;28;20025;-73
2023/07/19 01:30:59;;;;;;;7.93;3.17;;;;;;;;;;5072967;28;20330;-73
2023/07/19 01:33:25;;;;;;;5.50;3.63;;;;;;;;;;5072320;28;20394;-73
2023/07/19 01:35:51;;;;;;;8.45;4.00;;;;;;;;;;5072499;28;20021;-73
2023/07/19 01:38:17;;;;;;;9.68;4.15;;;;;;;;;;5072337;28;20058;-73
2023/07/19 01:40:43;;;;;;;6.47;3.67;;;;;;;;;;5072527;28;20103;-75
2023/07/19 01:43:09;;;;;;;9.40;4.10;;;;;;;;;;5072285;28;20095;-72
2023/07/19 01:45:34;;;;;;;5.32;3.60;;;;;;;;;;5072817;28;20108;-72
2023/07/19 01:48:00;;;;;;;10.82;4.20;;;;;;;;;;5072685;28;20498;-72
2023/07/19 01:50:26;;;;;;;13.93;4.47;;;;;;;;;;5072025;28;20039;-74
2023/07/19 01:52:52;;;;;;;7.68;3.60;;;;;;;;;;5071699;28;20119;-74
2023/07/19 01:55:18;;;;;;;10.35;3.65;;;;;;;;;;5072126;28;20107;-74
2023/07/19 01:57:44;;;;;;;7.80;3.60;;;;;;;;;;5068853;28;20035;-73
2023/07/19 02:00:11;;;;;;;9.65;4.10;;;;;;;;;;5072440;28;20475;-72
2023/07/19 02:02:37;;;;;;;9.52;3.67;;;;;;;;;;5070975;28;20028;-73
2023/07/19 02:05:03;;;;;;;12.80;3.67;;;;;;;;;;5071832;28;20428;-73
2023/07/19 02:07:29;;;;;;;8.07;3.25;;;;;;;;;;5071648;28;20028;-73
2023/07/19 02:09:55;;;;;;;8.43;3.33;;;;;;;;;;5072062;28;20417;-74
2023/07/19 02:12:20;;;;;;;7.32;3.33;;;;;;;;;;5071255;28;20059;-73
2023/07/19 02:14:47;;;;;;;10.18;3.88;;;;;;;;;;5089890;28;20036;-73
2023/07/19 02:17:12;;;;;;;9.57;3.30;;;;;;;;;;5096190;28;20516;-72
2023/07/19 02:19:38;;;;;;;6.15;3.15;;;;;;;;;;5097285;28;20064;-72
2023/07/19 02:22:05;;;;;;;8.93;3.30;;;;;;;;;;5096462;28;20040;-73
2023/07/19 02:24:31;;;;;;;9.60;3.05;;;;;;;;;;5087276;28;20138;-75
2023/07/19 02:26:57;;;;;;;13.50;3.25;;;;;;;;;;5071471;28;20402;-73
2023/07/19 02:29:23;;;;;;;9.90;3.70;;;;;;;;;;5071327;28;20071;-73
2023/07/19 02:31:49;;;;;;;12.45;3.42;;;;;;;;;;5070548;28;20479;-73
2023/07/19 02:34:18;;;;;;;7.32;3.13;;;;;;;;;;5071887;28;20065;-73
2023/07/19 02:36:45;;;;;;;6.28;2.78;;;;;;;;;;5071478;28;20107;-73
2023/07/19 02:39:10;;;;;;;10.48;3.15;;;;;;;;;;5071407;28;20048;-73
2023/07/19 02:41:36;;;;;;;11.10;2.97;;;;;;;;;;5071214;28;20052;-77
2023/07/19 02:44:02;;;;;;;8.30;3.10;;;;;;;;;;5070472;28;20032;-73
2023/07/19 02:46:29;;;;;;;7.93;3.05;;;;;;;;;;5071268;28;20048;-73
2023/07/19 02:48:55;;;;;;;8.98;2.35;;;;;;;;;;5071901;28;20166;-73
2023/07/19 02:51:21;;;;;;;7.68;2.92;;;;;;;;;;5075286;28;20529;-75
2023/07/19 02:53:47;;;;;;;6.45;2.58;;;;;;;;;;5074721;28;20028;-73
2023/07/19 02:56:13;;;;;;;5.35;2.30;;;;;;;;;;5076133;28;20029;-73
2023/07/19 02:58:39;;;;;;;7.05;2.60;;;;;;;;;;5077005;28;20024;-73
2023/07/19 03:01:05;;;;;;;7.15;2.25;;;;;;;;;;5076050;28;20028;-73
2023/07/19 03:03:31;;;;;;;5.50;2.00;;;;;;;;;;5075183;28;20020;-71
2023/07/19 03:05:57;;;;;;;5.93;2.00;;;;;;;;;;5074906;28;20032;-72
2023/07/19 03:08:23;;;;;;;7.13;2.08;;;;;;;;;;5074971;28;20024;-74
2023/07/19 03:10:53;;;;;;;4.10;1.73;;;;;;;;;;5074693;28;20024;-72
2023/07/19 03:13:19;;;;;;;5.65;2.35;;;;;;;;;;5074370;28;20013;-73
2023/07/19 03:15:46;;;;;;;7.45;2.22;;;;;;;;;;5074942;28;20553;-74
2023/07/19 03:18:12;;;;;;;5.28;2.13;;;;;;;;;;5074933;28;20021;-72
2023/07/19 03:20:38;;;;;;;4.55;1.80;;;;;;;;;;5074878;28;20058;-73
2023/07/19 03:23:04;;;;;;;7.38;2.15;;;;;;;;;;5073983;28;20537;-72
2023/07/19 03:25:30;;;;;;;5.32;1.92;;;;;;;;;;5074678;28;20021;-72
2023/07/19 03:27:56;;;;;;;5.90;1.88;;;;;;;;;;5074483;28;20036;-73
2023/07/19 03:30:22;;;;;;;7.38;2.17;;;;;;;;;;5074886;28;20054;-73
2023/07/19 03:32:48;;;;;;;7.93;2.42;;;;;;;;;;5074509;28;20539;-72
2023/07/19 03:35:15;;;;;;;4.20;1.80;;;;;;;;;;5074999;28;20386;-73
2023/07/19 03:37:44;;;;;;;4.85;2.05;;;;;;;;;;5075495;28;20393;-73
2023/07/19 03:40:10;;;;;;;6.18;2.10;;;;;;;;;;5073096;28;20209;-72
2023/07/19 03:42:36;;;;;;;3.67;1.88;;;;;;;;;;5074235;28;20028;-73
2023/07/19 03:45:03;;;;;;;5.22;1.80;;;;;;;;;;5074641;28;20095;-73
2023/07/19 03:47:29;;;;;;;6.45;2.03;;;;;;;;;;5074847;28;20044;-73
2023/07/19 03:49:55;;;;;;;6.05;2.28;;;;;;;;;;5075124;28;20028;-73
2023/07/19 03:52:21;;;;;;;4.15;2.03;;;;;;;;;;5076978;28;20399;-73
2023/07/19 03:54:47;;;;;;;5.05;2.42;;;;;;;;;;5076549;28;20039;-72
2023/07/19 03:57:12;;;;;;;5.20;2.17;;;;;;;;;;5080663;28;20029;-72
2023/07/19 03:59:38;;;;;;;7.40;2.85;;;;;;;;;;5087155;28;20052;-74
2023/07/19 04:02:05;;;;;;;6.40;2.50;;;;;;;;;;5078130;28;20133;-72
2023/07/19 04:04:31;;;;;;;4.25;1.88;;;;;;;;;;5074816;28;20024;-73
2023/07/19 04:06:57;;;;;;;8.65;2.00;;;;;;;;;;5074272;28;20486;-73
2023/07/19 04:09:22;;;;;;;7.78;2.05;;;;;;;;;;5074116;28;20029;-73
2023/07/19 04:11:48;;;;;;;5.53;1.85;;;;;;;;;;5073829;28;20036;-73
2023/07/19 04:14:14;;;;;;;4.40;2.25;;;;;;;;;;5074096;28;20104;-74
2023/07/19 04:16:41;;;;;;;10.80;2.42;;;;;;;;;;5074713;28;20103;-74
2023/07/19 04:19:07;;;;;;;6.35;2.00;;;;;;;;;;5075103;28;20031;-73
2023/07/19 04:21:33;;;;;;;5.97;1.80;;;;;;;;;;5075000;28;20397;-73
2023/07/19 04:23:59;;;;;;;7.00;1.90;;;;;;;;;;5074688;28;20024;-73
2023/07/19 04:26:25;;;;;;;6.05;2.40;;;;;;;;;;5072943;28;20027;-75
2023/07/19 04:28:51;;;;;;;9.45;4.63;;;;;;;;;;5073879;28;20032;-72
2023/07/19 04:31:17;;;;;;;8.27;2.53;;;;;;;;;;5073638;28;20032;-73
2023/07/19 04:33:43;;;;;;;8.65;2.35;;;;;;;;;;5073617;28;20150;-74
2023/07/19 04:36:12;;;;;;;8.15;2.85;;;;;;;;;;5074732;28;20028;-74
2023/07/19 04:38:38;;;;;;;8.30;3.00;;;;;;;;;;5073301;28;20021;-74
2023/07/19 04:41:04;;;;;;;11.27;2.30;;;;;;;;;;5073625;28;20363;-74
2023/07/19 04:43:30;;;;;;;9.05;2.80;;;;;;;;;;5074639;28;20063;-74
2023/07/19 04:45:56;;;;;;;5.32;2.13;;;;;;;;;;5074419;28;20417;-73
2023/07/19 04:48:22;;;;;;;7.10;2.50;;;;;;;;;;5073965;28;20056;-73
2023/07/19 04:50:56;;;;;;;7.43;2.45;;;;;;;;;;5073891;28;20040;-75
2023/07/19 04:53:22;;;;;;;6.55;2.60;;;;;;;;;;5072548;28;20406;-76
2023/07/19 04:55:49;;;;;;;10.02;4.50;;;;;;;;;;5073266;28;20063;-75
2023/07/19 04:58:15;;;;;;;8.27;3.00;;;;;;;;;;5073385;28;20040;-75
2023/07/19 05:00:41;;;;;;;9.90;2.70;;;;;;;;;;5073707;28;20082;-72
2023/07/19 05:03:07;;;;;;;10.10;3.45;;;;;;;;;;5073584;28;20028;-73
2023/07/19 05:05:34;;;;;;;7.93;2.80;;;;;;;;;;5076371;28;20070;-73
2023/07/19 05:08:00;;;;;;;10.00;3.05;;;;;;;;;;5072083;28;20077;-75
2023/07/19 05:10:26;;;;;;;9.35;2.60;;;;;;;;;;5074008;28;20031;-73
2023/07/19 05:12:52;;;;;;;9.15;2.80;;;;;;;;;;5073793;28;20043;-74
2023/07/19 05:15:18;;;;;;;4.90;2.65;;;;;;;;;;5073631;28;20111;-74
2023/07/19 05:17:44;;;;;;;6.90;3.03;;;;;;;;;;5073247;28;20060;-73
2023/07/19 05:20:10;;;;;;;6.90;2.35;;;;;;;;;;5073461;28;20035;-74
2023/07/19 05:22:37;;;;;;;10.55;3.38;;;;;;;;;;5072995;28;20032;-74
2023/07/19 05:25:03;;;;;;;9.30;2.78;;;;;;;;;;5072090;28;20020;-73
2023/07/19 05:27:29;;;;;;;9.52;2.80;;;;;;;;;;5072858;28;20040;-74
2023/07/19 05:29:55;;;;;;;9.32;2.97;;;;;;;;;;5072745;28;20111;-73
2023/07/19 05:32:21;;;;;;;8.18;2.70;;;;;;;;;;5072326;28;20162;-74
2023/07/19 05:34:47;;;;;;;7.82;2.60;;;;;;;;;;5071706;28;20073;-75
2023/07/19 05:37:13;;;;;;;5.70;2.30;;;;;;;;;;5072277;28;20033;-75
2023/07/19 05:39:39;;;;;;;6.35;2.10;;;;;;;;;;5071821;28;20391;-75
2023/07/19 05:42:05;;;;;;;3.50;2.00;;;;;;;;;;5074426;28;20029;-74
2023/07/19 05:44:31;;;;;;;5.70;2.55;;;;;;;;;;5071652;28;20447;-75
2023/07/19 05:46:58;;;;;;;9.35;4.03;;;;;;;;;;5075224;28;20020;-75
2023/07/19 05:49:24;;;;;;;10.55;3.38;;;;;;;;;;5080764;28;20033;-77
2023/07/19 05:51:50;;;;;;;6.78;2.45;;;;;;;;;;5077754;28;20017;-76
2023/07/19 05:54:16;;;;;;;10.38;3.10;;;;;;;;;;5075781;28;20043;-76
2023/07/19 05:56:42;;;;;;;7.43;2.45;;;;;;;;;;5075108;28;20174;-75
2023/07/19 05:59:08;;;;;;;5.15;2.45;;;;;;;;;;5076685;28;20542;-75
2023/07/19 06:01:35;;;;;;;13.00;2.88;;;;;;;;;;5076463;28;20023;-76
2023/07/19 06:04:01;;;;;;;9.25;3.42;;;;;;;;;;5071633;28;20039;-76
2023/07/19 06:06:27;;;;;;;5.32;2.42;;;;;;;;;;5072191;28;20028;-76
2023/07/19 06:08:53;;;;;;;8.98;3.17;;;;;;;;;;5080057;28;20024;-76
2023/07/19 06:11:19;;;;;;;8.38;3.17;;;;;;;;;;5076766;28;20048;-76
2023/07/19 06:13:45;;;;;;;8.77;3.15;;;;;;;;;;5071668;28;20024;-76
2023/07/19 06:16:11;;;;;;;10.90;3.05;;;;;;;;;;5078135;28;20033;-74
2023/07/19 06:18:36;;;;;;;11.20;3.20;;;;;;;;;;5071234;28;20031;-75
2023/07/19 06:21:02;;;;;;;7.15;3.03;;;;;;;;;;5071866;28;20025;-72
2023/07/19 06:23:28;;;;;;;5.32;2.85;;;;;;;;;;5071121;28;20025;-76
2023/07/19 06:25:55;;;;;;;7.28;3.20;;;;;;;;;;5072391;28;20085;-74
2023/07/19 06:28:20;;;;;;;9.20;3.00;;;;;;;;;;5069569;28;20474;-72
2023/07/19 06:30:46;;;;;;;10.43;3.53;;;;;;;;;;5073284;28;20033;-73
2023/07/19 06:33:12;;;;;;;7.20;3.40;;;;;;;;;;5072721;28;20697;-74
2023/07/19 06:35:38;;;;;;;11.48;3.65;;;;;;;;;;5073409;28;20078;-75
2023/07/19 06:38:05;;;;;;;7.32;2.70;;;;;;;;;;5073478;28;20028;-73
2023/07/19 06:40:31;;;;;;;6.78;2.70;;;;;;;;;;5071580;28;20029;-73
2023/07/19 06:42:57;;;;;;;8.07;2.67;;;;;;;;;;5070678;28;20025;-73
2023/07/19 06:45:23;;;;;;;3.53;2.30;;;;;;;;;;5073277;28;20181;-75
2023/07/19 06:47:49;;;;;;;5.43;2.47;;;;;;;;;;5072383;28;20028;-71
2023/07/19 06:50:15;;;;;;;5.03;2.38;;;;;;;;;;5071585;28;20036;-72
2023/07/19 06:52:41;;;;;;;8.52;3.72;;;;;;;;;;5069035;28;20457;-74
2023/07/19 06:55:07;;;;;;;9.43;3.80;;;;;;;;;;5068942;28;20040;-72
2023/07/19 06:57:33;;;;;;;12.45;5.72;;;;;;;;;;5069980;28;20025;-72
2023/07/19 06:59:59;;;;;;;11.18;3.83;;;;;;;;;;5070663;28;20035;-72
2023/07/19 07:02:25;;;;;;;6.85;3.38;;;;;;;;;;5070237;28;20017;-73
2023/07/19 07:04:51;;;;;;;14.02;6.30;;;;;;;;;;5071254;28;20040;-73
2023/07/19 07:07:19;;;;;;;7.95;3.83;;;;;;;;;;5069390;28;20498;-73
2023/07/19 07:09:45;;;;;;;19.25;6.30;;;;;;;;;;5070042;28;20024;-74
2023/07/19 07:12:11;;;;;;;11.55;4.72;;;;;;;;;;5069801;28;20383;-80
2023/07/19 07:14:38;;;;;;;21.92;10.60;;;;;;;;;;5069553;28;20056;-75
2023/07/19 07:17:04;;;;;;;17.08;6.90;;;;;;;;;;5070174;28;20029;-73
2023/07/19 07:19:30;;;;;;;9.65;2.85;;;;;;;;;;5069697;28;20025;-76
2023/07/19 07:21:56;;;;;;;19.38;7.45;;;;;;;;;;5069670;28;20493;-75
2023/07/19 07:24:22;;;;;;;6.88;3.35;;;;;;;;;;5078638;28;20031;-73
2023/07/19 07:26:48;;;;;;;5.65;2.90;;;;;;;;;;5091737;28;20033;-79
2023/07/19 07:29:14;;;;;;;4.55;2.17;;;;;;;;;;5090448;28;20032;-78
2023/07/19 07:31:40;;;;;;;5.13;2.35;;;;;;;;;;5074865;28;20077;-78
2023/07/19 07:34:06;;;;;;;6.43;2.45;;;;;;;;;;5071144;28;20025;-78
2023/07/19 07:36:32;;;;;;;7.18;2.35;;;;;;;;;;5074710;28;20053;-78
2023/07/19 07:38:58;;;;;;;31.08;3.17;;;;;;;;;;5073961;28;20108;-75
2023/07/19 07:41:24;;;;;;;5.40;2.63;;;;;;;;;;5074234;28;20514;-74
2023/07/19 07:43:50;;;;;;;9.15;3.13;;;;;;;;;;5073591;28;20029;-74
2023/07/19 07:46:16;;;;;;;32.00;13.45;;;;;;;;;;5073821;28;20027;-73
2023/07/19 07:48:42;;;;;;;46.10;22.55;;;;;;;;;;5071454;28;20024;-72
2023/07/19 07:51:08;;;;;;;35.83;18.35;;;;;;;;;;5075990;28;20070;-74
2023/07/19 07:53:34;;;;;;;22.60;9.75;;;;;;;;;;5090811;28;20035;-74
2023/07/19 07:56:00;;;;;;;18.42;7.80;;;;;;;;;;5093836;28;20031;-74
2023/07/19 07:58:26;;;;;;;16.95;7.45;;;;;;;;;;5094708;28;20029;-72
2023/07/19 08:00:54;;;;;;;12.18;5.47;;;;;;;;;;5094884;28;20024;-72
2023/07/19 08:03:20;;;;;;;9.05;4.20;;;;;;;;;;5089012;28;20013;-73
2023/07/19 08:05:46;;;;;;;6.28;2.50;;;;;;;;;;5074140;28;20051;-73
2023/07/19 08:08:12;;;;;;;7.05;2.92;;;;;;;;;;5074054;28;20424;-74
2023/07/19 08:10:39;;;;;;;7.30;2.42;;;;;;;;;;5074485;28;20032;-72
2023/07/19 08:13:05;;;;;;;5.47;2.35;;;;;;;;;;5073627;28;20044;-74
2023/07/19 08:15:31;;;;;;;4.07;2.85;;;;;;;;;;5074296;28;20032;-74
2023/07/19 08:17:57;;;;;;;3.95;1.98;;;;;;;;;;5074408;28;20085;-75
2023/07/19 08:20:24;;;;;;;6.53;2.78;;;;;;;;;;5074086;28;20027;-73
2023/07/19 08:22:51;;;;;;;8.07;2.25;;;;;;;;;;5073784;28;20027;-73
2023/07/19 08:25:19;;;;;;;7.07;3.20;;;;;;;;;;5073803;28;20050;-73
2023/07/19 08:27:45;;;;;;;8.10;3.40;;;;;;;;;;5073520;28;20017;-72
2023/07/19 08:30:17;;;;;;;9.43;2.85;;;;;;;;;;5074810;28;20029;-73
2023/07/19 08:32:45;;;;;;;7.90;2.20;;;;;;;;;;5074903;28;20021;-73
2023/07/19 08:35:11;;;;;;;7.00;1.88;;;;;;;;;;5074802;28;20539;-73
2023/07/19 08:37:37;;;;;;;5.68;1.83;;;;;;;;;;5073744;28;20033;-73
2023/07/19 08:40:03;;;;;;;5.43;1.70;;;;;;;;;;5073994;28;20021;-75
2023/07/19 08:42:29;;;;;;;4.65;1.73;;;;;;;;;;5072954;28;20025;-73
2023/07/19 08:44:55;;;;;;;3.05;1.35;;;;;;;;;;5073355;28;20024;-73
2023/07/19 08:47:21;;;;;;;3.35;1.13;;;;;;;;;;5072829;28;20028;-74
2023/07/19 08:49:49;;;;;;;6.95;2.10;;;;;;;;;;5073609;28;20032;-75
2023/07/19 08:52:16;;;;;;;4.47;1.73;;;;;;;;;;5072768;28;20028;-75
2023/07/19 08:54:42;;;;;;;2.40;1.30;;;;;;;;;;5073576;28;20024;-75
2023/07/19 08:57:08;;;;;;;7.55;4.72;;;;;;;;;;5073178;28;20082;-76
2023/07/19 08:59:34;;;;;;;5.38;3.00;;;;;;;;;;5073185;28;20029;-75
2023/07/19 09:02:00;;;;;;;5.38;1.60;;;;;;;;;;5072763;28;20021;-75
2023/07/19 09:04:27;;;;;;;4.32;1.70;;;;;;;;;;5073387;28;20094;-74
2023/07/19 09:06:52;;;;;;;5.20;1.77;;;;;;;;;;5073400;28;20020;-76
2023/07/19 09:09:18;;;;;;;5.75;2.38;;;;;;;;;;5073071;28;20024;-77
2023/07/19 09:11:49;;;;;;;4.05;1.60;;;;;;;;;;5072034;28;20041;-75
2023/07/19 09:14:15;;;;;;;4.68;1.50;;;;;;;;;;5072969;28;20020;-77
2023/07/19 09:16:41;;;;;;;4.57;2.05;;;;;;;;;;5072607;28;20032;-77
2023/07/19 09:19:08;;;;;;;9.35;1.58;;;;;;;;;;5072493;28;20037;-75
2023/07/19 09:21:46;;;;;;;8.45;1.95;;;;;;;;;;5072250;28;20040;-75
2023/07/19 09:24:14;;;;;;;5.35;1.73;;;;;;;;;;5073777;28;20358;-76
2023/07/19 09:27:00;;;;;;;4.38;1.58;;;;;;;;;;5072428;28;20017;-77
2023/07/19 09:29:30;;;;;;;4.07;1.30;;;;;;;;;;5072515;28;20073;-74
2023/07/19 09:31:59;;;;;;;3.75;1.40;;;;;;;;;;5072046;28;20047;-75
2023/07/19 09:34:26;;;;;;;9.40;1.70;;;;;;;;;;5072532;28;20025;-73
2023/07/19 09:36:53;;;;;;;8.80;1.80;;;;;;;;;;5072546;28;20024;-73
2023/07/19 09:39:19;;;;;;;3.47;1.20;;;;;;;;;;5072439;28;20021;-72
2023/07/19 09:41:48;;;;;;;7.00;1.75;;;;;;;;;;5072051;28;20031;-73
2023/07/19 09:44:17;;;;;;;3.90;1.40;;;;;;;;;;5073034;28;20036;-72
2023/07/19 09:46:44;;;;;;;7.20;1.35;;;;;;;;;;5072302;28;20027;-74
2023/07/19 09:49:10;;;;;;;9.10;3.10;;;;;;;;;;5072682;28;20514;-73
2023/07/19 09:51:39;;;;;;;5.18;2.10;;;;;;;;;;5072128;28;20029;-73
2023/07/19 09:54:07;;;;;;;5.15;2.28;;;;;;;;;;5072022;28;20429;-74
2023/07/19 09:56:33;;;;;;;5.18;2.63;;;;;;;;;;5072331;28;20028;-74
2023/07/19 09:59:00;;;;;;;5.30;2.70;;;;;;;;;;5072503;28;20033;-73
2023/07/19 10:01:26;;;;;;;3.83;1.80;;;;;;;;;;5072600;28;20052;-71
2023/07/19 10:03:52;;;;;;;3.25;1.10;;;;;;;;;;5072502;28;20016;-74
2023/07/19 10:06:18;;;;;;;7.32;2.13;;;;;;;;;;5072804;28;20099;-74
2023/07/19 10:08:44;;;;;;;5.63;1.33;;;;;;;;;;5072822;28;20055;-74
2023/07/19 10:11:23;;;;;;;5.40;1.40;;;;;;;;;;5072214;28;20473;-75
2023/07/19 10:13:59;;;;;;;3.75;1.50;;;;;;;;;;5071525;28;20021;-73
2023/07/19 10:16:25;;;;;;;6.53;1.50;;;;;;;;;;5072054;28;20024;-73
2023/07/19 10:19:10;;;;;;;3.90;1.20;;;;;;;;;;5071584;28;20035;-73
2023/07/19 10:21:36;;;;;;;4.32;1.15;;;;;;;;;;5072412;28;20012;-74
2023/07/19 10:24:09;;;;;;;6.43;2.50;;;;;;;;;;5074444;28;20040;-75
2023/07/19 10:26:36;;;;;;;3.28;1.48;;;;;;;;;;5072470;28;20025;-75
2023/07/19 10:29:03;;;;;;;5.18;1.90;;;;;;;;;;5073723;28;20021;-72
2023/07/19 10:31:29;;;;;;;3.33;1.70;;;;;;;;;;5074869;28;20035;-73
2023/07/19 10:33:56;;;;;;;4.13;1.40;;;;;;;;;;5077169;28;20032;-73
2023/07/19 10:36:22;;;;;;;4.90;1.95;;;;;;;;;;5074467;28;20024;-73
2023/07/19 10:38:48;;;;;;;4.43;2.00;;;;;;;;;;5073910;28;20441;-75
2023/07/19 10:41:15;;;;;;;9.20;2.10;;;;;;;;;;5072529;28;20109;-72
2023/07/19 10:43:42;;;;;;;4.22;1.60;;;;;;;;;;5073299;28;20028;-74
2023/07/19 10:46:08;;;;;;;8.30;1.80;;;;;;;;;;5073404;28;20021;-73
2023/07/19 10:48:38;;;;;;;4.05;1.55;;;;;;;;;;5072767;28;20092;-72
2023/07/19 10:51:08;;;;;;;7.57;1.80;;;;;;;;;;5071442;28;20478;-74
2023/07/19 10:53:45;;;;;;;7.68;2.33;;;;;;;;;;5071094;28;20079;-73
2023/07/19 10:56:13;;;;;;;9.48;2.60;;;;;;;;;;5071410;28;20032;-72
2023/07/19 10:58:39;;;;;;;5.00;1.70;;;;;;;;;;5071240;28;20103;-72
2023/07/19 11:01:06;;;;;;;7.47;2.25;;;;;;;;;;5071327;28;20511;-73
2023/07/19 11:03:32;;;;;;;4.40;1.52;;;;;;;;;;5070920;28;20028;-73
2023/07/19 11:05:58;;;;;;;5.75;1.80;;;;;;;;;;5071115;28;20058;-72
2023/07/19 11:08:28;;;;;;;6.68;1.38;;;;;;;;;;5071086;28;20032;-72
2023/07/19 11:10:55;;;;;;;4.00;1.65;;;;;;;;;;5073653;28;20044;-74
2023/07/19 11:13:22;;;;;;;5.18;1.45;;;;;;;;;;5074828;28;20033;-73
2023/07/19 11:15:49;;;;;;;4.13;1.50;;;;;;;;;;5075239;28;20059;-72
2023/07/19 11:18:28;;;;;;;2.80;1.40;;;;;;;;;;5075952;28;20389;-74
2023/07/19 11:20:55;;;;;;;3.55;1.95;;;;;;;;;;5075822;28;20038;-73
2023/07/19 11:23:21;;;;;;;8.48;1.70;;;;;;;;;;5074782;28;20020;-73
2023/07/19 11:25:47;;;;;;;6.80;1.90;;;;;;;;;;5075373;28;20059;-72
2023/07/19 11:28:13;;;;;;;5.93;1.67;;;;;;;;;;5074154;28;20237;-71
2023/07/19 11:30:40;;;;;;;6.30;1.83;;;;;;;;;;5076410;28;20032;-73
2023/07/19 11:33:07;;;;;;;10.18;2.45;;;;;;;;;;5073761;28;20071;-72
2023/07/19 11:35:33;;;;;;;7.03;1.95;;;;;;;;;;5072628;28;20036;-72
2023/07/19 11:37:59;;;;;;;6.10;1.60;;;;;;;;;;5073689;28;20055;-74
2023/07/19 11:40:26;;;;;;;8.80;1.52;;;;;;;;;;5073607;28;20048;-74
2023/07/19 11:42:56;;;;;;;5.38;1.45;;;;;;;;;;5072943;28;20509;-72
2023/07/19 11:45:24;;;;;;;4.38;1.70;;;;;;;;;;5073908;28;20340;-73
2023/07/19 11:47:54;;;;;;;9.27;4.13;;;;;;;;;;5073118;28;20031;-75
2023/07/19 11:50:23;;;;;;;9.27;2.15;;;;;;;;;;5073177;28;20024;-73
2023/07/19 11:52:51;;;;;;;6.03;2.08;;;;;;;;;;5072589;28;20052;-72
2023/07/19 11:55:18;;;;;;;5.25;1.70;;;;;;;;;;5073039;28;20059;-72
2023/07/19 11:57:45;;;;;;;6.50;1.67;;;;;;;;;;5073317;28;20489;-72
2023/07/19 12:00:11;;;;;;;8.55;2.00;;;;;;;;;;5073482;28;20033;-72
2023/07/19 12:02:38;;;;;;;6.40;1.63;;;;;;;;;;5073028;28;20070;-73
2023/07/19 12:05:05;;;;;;;6.07;1.80;;;;;;;;;;5073371;28;20426;-72
2023/07/19 12:07:34;;;;;;;6.10;1.98;;;;;;;;;;5073136;28;20454;-72
2023/07/19 12:10:03;;;;;;;5.28;1.70;;;;;;;;;;5072962;28;20656;-72
2023/07/19 12:12:29;;;;;;;6.43;2.08;;;;;;;;;;5072230;28;20071;-73
2023/07/19 12:14:55;;;;;;;7.10;2.20;;;;;;;;;;5072649;28;20033;-72
2023/07/19 12:17:20;;;;;;;5.78;1.77;;;;;;;;;;5073105;28;20086;-74
2023/07/19 12:19:46;;;;;;;5.80;1.98;;;;;;;;;;5072511;28;20100;-72
2023/07/19 12:22:12;;;;;;;6.05;1.70;;;;;;;;;;5070792;28;20428;-72
2023/07/19 12:24:38;;;;;;;4.88;1.95;;;;;;;;;;5072767;28;20052;-72
2023/07/19 12:27:05;;;;;;;5.75;1.92;;;;;;;;;;5072624;28;20477;-72
2023/07/19 12:29:31;;;;;;;5.90;1.80;;;;;;;;;;5071957;28;20051;-73
2023/07/19 12:31:57;;;;;;;6.78;1.80;;;;;;;;;;5071943;28;20024;-73
2023/07/19 12:34:22;;;;;;;7.32;2.22;;;;;;;;;;5071996;28;20040;-74
2023/07/19 12:36:50;;;;;;;4.53;1.80;;;;;;;;;;5072824;28;20077;-73
2023/07/19 12:39:16;;;;;;;10.77;1.90;;;;;;;;;;5069681;28;20052;-74
2023/07/19 12:41:42;;;;;;;5.03;1.75;;;;;;;;;;5072471;28;20021;-72
2023/07/19 12:44:08;;;;;;;5.82;2.15;;;;;;;;;;5071571;28;20107;-72
2023/07/19 12:46:34;;;;;;;8.57;2.60;;;;;;;;;;5072196;28;20088;-73
2023/07/19 12:49:00;;;;;;;5.32;2.22;;;;;;;;;;5067941;28;20012;-73
2023/07/19 12:51:26;;;;;;;6.35;2.05;;;;;;;;;;5082819;28;20045;-72
2023/07/19 12:53:52;;;;;;;36.35;21.60;;;;;;;;;;5070886;28;20072;-73
2023/07/19 12:56:18;;;;;;;12.18;6.50;;;;;;;;;;5071609;28;20028;-73
2023/07/19 12:58:44;;;;;;;5.47;3.05;;;;;;;;;;5074008;28;20056;-73
2023/07/19 13:01:12;;;;;;;16.27;9.52;;;;;;;;;;5077794;28;20537;-75
2023/07/19 13:03:38;;;;;;;5.30;3.10;;;;;;;;;;5070897;28;20024;-72
2023/07/19 13:06:04;;;;;;;5.63;2.75;;;;;;;;;;5079045;28;20056;-73
2023/07/19 13:08:30;;;;;;;6.53;2.15;;;;;;;;;;5075559;28;20032;-73
2023/07/19 13:10:56;;;;;;;8.90;4.43;;;;;;;;;;5072466;28;20035;-75
2023/07/19 13:13:22;;;;;;;8.35;4.65;;;;;;;;;;5071737;28;20078;-73
2023/07/19 13:15:48;;;;;;;4.75;3.10;;;;;;;;;;5071993;28;20017;-74
2023/07/19 13:18:15;;;;;;;5.15;2.10;;;;;;;;;;5072141;28;20233;-74
2023/07/19 13:20:41;;;;;;;7.38;2.83;;;;;;;;;;5071900;28;20032;-75
2023/07/19 13:23:07;;;;;;;8.05;2.53;;;;;;;;;;5070841;28;20029;-74
2023/07/19 13:25:33;;;;;;;7.03;2.50;;;;;;;;;;5071279;28;20355;-73
2023/07/19 13:27:59;;;;;;;5.53;2.85;;;;;;;;;;5070922;28;20025;-73
2023/07/19 13:30:25;;;;;;;6.45;2.53;;;;;;;;;;5071217;28;20478;-73
2023/07/19 13:32:51;;;;;;;6.13;2.22;;;;;;;;;;5069836;28;20051;-73
2023/07/19 13:35:17;;;;;;;5.25;2.28;;;;;;;;;;5070949;28;20363;-72
2023/07/19 13:37:43;;;;;;;7.40;2.58;;;;;;;;;;5071207;28;20043;-73
2023/07/19 13:40:09;;;;;;;3.92;2.22;;;;;;;;;;5071959;28;20032;-73
2023/07/19 13:42:37;;;;;;;5.72;2.45;;;;;;;;;;5070953;28;20039;-74
2023/07/19 13:45:04;;;;;;;5.97;2.20;;;;;;;;;;5097265;28;20020;-73
2023/07/19 13:47:30;;;;;;;8.68;2.50;;;;;;;;;;5073658;28;20025;-74
2023/07/19 13:49:56;;;;;;;8.15;2.97;;;;;;;;;;5071839;28;20389;-73
2023/07/19 13:52:21;;;;;;;13.02;7.00;;;;;;;;;;5075387;28;20032;-74
2023/07/19 13:54:49;;;;;;;14.75;5.70;;;;;;;;;;5072079;28;20032;-72
2023/07/19 13:57:15;;;;;;;10.38;2.63;;;;;;;;;;5072977;28;20107;-73
2023/07/19 13:59:41;;;;;;;4.70;2.05;;;;;;;;;;5074035;28;20101;-74
2023/07/19 14:02:08;;;;;;;7.13;2.30;;;;;;;;;;5074181;28;20103;-72
2023/07/19 14:04:34;;;;;;;8.48;2.67;;;;;;;;;;5073686;28;20070;-73
2023/07/19 14:07:00;;;;;;;7.43;2.78;;;;;;;;;;5072395;28;20021;-73
2023/07/19 14:09:26;;;;;;;8.65;2.63;;;;;;;;;;5072062;28;20035;-73
2023/07/19 14:11:52;;;;;;;5.68;2.28;;;;;;;;;;5071570;28;20040;-77
2023/07/19 14:14:19;;;;;;;5.82;2.10;;;;;;;;;;5071334;28;20025;-74
2023/07/19 14:16:45;;;;;;;4.88;2.03;;;;;;;;;;5069810;28;20391;-73
2023/07/19 14:19:11;;;;;;;4.80;2.03;;;;;;;;;;5073148;28;20086;-75
2023/07/19 14:21:37;;;;;;;4.15;1.80;;;;;;;;;;5080902;28;20020;-73
2023/07/19 14:24:03;;;;;;;5.05;2.40;;;;;;;;;;5071154;28;20020;-72
2023/07/19 14:26:29;;;;;;;8.27;2.90;;;;;;;;;;5071942;28;20028;-74
2023/07/19 14:28:55;;;;;;;6.85;2.50;;;;;;;;;;5080465;28;20024;-73
2023/07/19 14:31:22;;;;;;;6.13;2.95;;;;;;;;;;5078967;28;20025;-73
2023/07/19 14:33:48;;;;;;;6.63;2.75;;;;;;;;;;5073514;28;20031;-73
2023/07/19 14:36:15;;;;;;;4.85;2.05;;;;;;;;;;5071256;28;20063;-73